True Love — WDG3367 — position and weather

sailwx.info

Track history (hours):
 
Tides and Currents Weather Stations Pressure Air Temp Water Temp Dewpoint Dewpoint Depression Visibility Wind Speed Wind Dir Waves Ship Positions

True Love

Owner: Spady, James R, Snoqualmie Pass, WA. More information available from US FCC via Universal Licensing System and Coast Guard Vessel Documentation Center.

Last reported at 2015-Jul-29 00:32 UTC. Time now 2015-Jul-29 22:05 UTC.
Position N 48°39' W 122°41'.

Length 16 m.

Type: Pleasure craft. MMSI: 367525310.

Date/timePositionNaut miles runAvg speedWind from/ knotsBaromVisibWave heightAir tempDewpointWater temp
2015-Jul-29 00:32N 48°39' W 122°41'26 8.7
2015-Jul-28 21:33N 48°54' W 123°14'10 8.3
2015-Jul-28 20:19N 48°59' W 123°28'9 8.4
2015-Jul-28 19:13N 49°03' W 123°40'4 3.3
2015-Jul-28 18:04N 49°06' W 123°44'0 0.0
2015-Jul-28 17:25N 49°06' W 123°44'0 0.0
2015-Jul-28 13:29N 49°06' W 123°44'0 0.0
2015-Jul-28 11:29N 49°06' W 123°44'0 0.0
2015-Jul-28 06:32N 49°06' W 123°44'0 0.0
2015-Jul-28 05:29N 49°06' W 123°44'0 0.0
2015-Jul-28 04:29N 49°06' W 123°44'0 0.0
2015-Jul-28 02:26N 49°06' W 123°44'10 5.4
2015-Jul-28 00:33N 49°13' W 123°54'6 6.5
2015-Jul-27 23:33N 49°19' W 123°58'8 8.1
2015-Jul-27 22:33N 49°27' W 124°01'1010.2
2015-Jul-27 21:33N 49°37' W 124°04'1 1.4
2015-Jul-27 20:32N 49°38' W 124°02'2 1.7
2015-Jul-27 19:33N 49°38' W 124°05'6 5.9
2015-Jul-27 18:33N 49°43' W 124°03'5 4.7
2015-Jul-27 17:33N 49°45' W 123°56'0 0.0
2015-Jul-27 16:30N 49°45' W 123°56'0 0.0
2015-Jul-27 15:33N 49°45' W 123°56'0 0.0
2015-Jul-27 14:21N 49°45' W 123°56'0 0.0
2015-Jul-27 13:33N 49°45' W 123°56'0 0.0
2015-Jul-27 12:33N 49°45' W 123°56'0 0.0
2015-Jul-27 11:33N 49°45' W 123°56'0 0.0
2015-Jul-27 10:33N 49°45' W 123°56'0 0.0
2015-Jul-27 09:33N 49°45' W 123°56'0 0.0
2015-Jul-27 08:30N 49°45' W 123°56'0 0.0
2015-Jul-27 07:33N 49°45' W 123°56'0 0.0
2015-Jul-27 06:33N 49°45' W 123°56'0 0.0
2015-Jul-27 05:33N 49°45' W 123°56'0 0.0
2015-Jul-27 04:33N 49°45' W 123°56'0 0.0
2015-Jul-27 03:33N 49°45' W 123°56'0 0.0
2015-Jul-27 02:33N 49°45' W 123°56'0 0.0
2015-Jul-27 01:33N 49°45' W 123°56'0 0.2
2015-Jul-27 00:33N 49°46' W 123°57'9 8.5
2015-Jul-26 23:33N 49°46' W 124°10'9 8.4
2015-Jul-26 22:32N 49°45' W 124°23'  
Track history (hours):
 
Tides and Currents Weather Stations Pressure Air Temp Water Temp Dewpoint Dewpoint Depression Visibility Wind Speed Wind Dir Waves Ship Positions

True Love

Owner: Spady, James R, Snoqualmie Pass, WA. More information available from US FCC via Universal Licensing System and Coast Guard Vessel Documentation Center.

Last reported at 2015-Jul-29 00:32 UTC. Time now 2015-Jul-29 22:05 UTC.
Position N 48°39' W 122°41'.

Length 16 m.

Type: Pleasure craft. MMSI: 367525310.

Date/timePositionNaut miles runAvg speedWind from/ knotsBaromVisibWave heightAir tempDewpointWater temp
2015-Jul-29 00:32N 48°39' W 122°41'26 8.7
2015-Jul-28 21:33N 48°54' W 123°14'10 8.3
2015-Jul-28 20:19N 48°59' W 123°28'9 8.4
2015-Jul-28 19:13N 49°03' W 123°40'4 3.3
2015-Jul-28 18:04N 49°06' W 123°44'0 0.0
2015-Jul-28 17:25N 49°06' W 123°44'0 0.0
2015-Jul-28 13:29N 49°06' W 123°44'0 0.0
2015-Jul-28 11:29N 49°06' W 123°44'0 0.0
2015-Jul-28 06:32N 49°06' W 123°44'0 0.0
2015-Jul-28 05:29N 49°06' W 123°44'0 0.0
2015-Jul-28 04:29N 49°06' W 123°44'0 0.0
2015-Jul-28 02:26N 49°06' W 123°44'10 5.4
2015-Jul-28 00:33N 49°13' W 123°54'6 6.5
2015-Jul-27 23:33N 49°19' W 123°58'8 8.1
2015-Jul-27 22:33N 49°27' W 124°01'1010.2
2015-Jul-27 21:33N 49°37' W 124°04'1 1.4
2015-Jul-27 20:32N 49°38' W 124°02'2 1.7
2015-Jul-27 19:33N 49°38' W 124°05'6 5.9
2015-Jul-27 18:33N 49°43' W 124°03'5 4.7
2015-Jul-27 17:33N 49°45' W 123°56'0 0.0
2015-Jul-27 16:30N 49°45' W 123°56'0 0.0
2015-Jul-27 15:33N 49°45' W 123°56'0 0.0
2015-Jul-27 14:21N 49°45' W 123°56'0 0.0
2015-Jul-27 13:33N 49°45' W 123°56'0 0.0
2015-Jul-27 12:33N 49°45' W 123°56'0 0.0
2015-Jul-27 11:33N 49°45' W 123°56'0 0.0
2015-Jul-27 10:33N 49°45' W 123°56'0 0.0
2015-Jul-27 09:33N 49°45' W 123°56'0 0.0
2015-Jul-27 08:30N 49°45' W 123°56'0 0.0
2015-Jul-27 07:33N 49°45' W 123°56'0 0.0
2015-Jul-27 06:33N 49°45' W 123°56'0 0.0
2015-Jul-27 05:33N 49°45' W 123°56'0 0.0
2015-Jul-27 04:33N 49°45' W 123°56'0 0.0
2015-Jul-27 03:33N 49°45' W 123°56'0 0.0
2015-Jul-27 02:33N 49°45' W 123°56'0 0.0
2015-Jul-27 01:33N 49°45' W 123°56'0 0.2
2015-Jul-27 00:33N 49°46' W 123°57'9 8.5
2015-Jul-26 23:33N 49°46' W 124°10'9 8.4
2015-Jul-26 22:32N 49°45' W 124°23'  

Dump ship's entire track history